Timeline UpdatesTrip UpdatesNews PostsPvt Posts♥♥Travel TipsAdmin PostsConv PostsFollowed PostsChat RequestsBlog PostsPNR Posts

Disclaimer
Search
 
 
Sat Nov 1, 2014 09:38:30 ISTHomeTrainsΣChainsAtlasPNRForumGalleryNewsFAQTripsMembersLoginFeedback
No Recent News for this Train
Other Trains in the News **new
Latest...
⇐ Return Journey: Train# 14235

14236/Bareilly - Varanasi Express

Time-Table HAS CHANGED.
Oct 27 (10:48AM)
Change Departure Station:
Change Arrival Station:
Post a Train Travel TipPost a Train Travel Tip **new
Post a Comment/Question/Picture/VideoPost a Comment/Question/Picture/Video
Pantry/Catering
✕ NO Pantry Car
✕ NO Catering
RSA - Rake Sharing
Rake/Coach Composition
LOCO-SLR-GS1-GS2-B1-S5-S4-S3-S2-S1-GS3-GS4-SLR. Blog# 943920.
Loco
News    PNR    Forum    Time-Table    Availability    Fare Chart    Map    Arr/Dep History    Trips    Gallery    ΣChains    X/O    Timeline    
Travel Time: 0h 22m    1 halts    Distance: 20 km    Avg Speed: 54 km/hr
Type: Mail/Express
Zone: NR/Northern
Departs @ 15:35 (Avg 14m late)
Platform# 3
SMTWTFS
Bareilly Junction/BE 
Arrives @ 15:57 (Avg 35m late)
Platform# ???
SMTWTFS
Pitambarpur/PMR 

1 halts. 2 intermediate Stations between Bareilly Junction and Pitambarpur

Show ALL intermediate Stations  Show Old Time-Table

#TrkCodeStation NameX/OArrivesAvgDepartsAvgHaltPFDay#KmSpeedElevZoneAddress
1/==/BEBareilly Junction (4)»  -15:35+14310.057174mNRBareilly, Uttar Pradesh
2/==/RYSRasuriya  15:46+2915:48+332m--110.463174mNRNH 24, Uttar Pradesh
3/==/PMRPitambarpur (3)•  15:57+3515:59+362m--119.957171mNRPitambarpur, Uttar Pradesh
4/==/TSATisua  16:08+3716:10+392m--128.453165mNRNational Highway 24, Uttar Pradesh
5/==/BLPUBilpur  16:18+3816:20+422m--135.454161mNRFatehganj, Uttar Pradesh
6/==/MKMiranpur Katra  16:28+4216:30+422m--142.658162mNRShahjahanpur, Uttar Pradesh
7/==/TLHTilhar  16:42 16:40+4316:44 16:42+462m--152.365163mNRTilhar, Uttar Pradesh
8/==/BTRABanthraX  16:53 16:51+4816:55 16:53+492m--162.134154mNRNH 24, Uttar Pradesh
9/==/SPNShahjahanpur Junction (3)X  17:07 17:08+3917:12 17:13+425m1170.555156mNRShahjahanpur, Uttar Pradesh
10/=-|ROZARoza Junction (4)X  17:20 17:21+5317:22 17:23+532m--177.851156mNRShahjahanpur, Uttar Pradesh
11/==/KHKahiliyaX  17:33+5517:35+582m--186.464152mNRSH 25, Uttar Pradesh
12/==/AIGAlgawan  17:43+5917:45+1:092m--194.954152mNRAlgawan, Uttar Pradesh
13/==/AJIAnjhi ShahabadXO  17:52+1:1017:54+1:162m--1101.264148mNRAnjhi Shahabad, Uttar Pradesh
14/==/TDPTodarpurXO  18:02+1:1618:04+1:172m--1109.765147mNRSH 25, Uttar Pradesh
15/==/BEGBehtagokul  18:11 18:10+1:1818:13 18:12+1:252m--1116.159152mNRBehtagokul, Uttar Pradesh
16/==/KUFKaurha  18:22 18:21+1:2518:24 18:23+1:312m--1125.056148mNRSH 25, Uttar Pradesh
17/==/HRIHardoi (5)X  18:33 18:32+1:1918:35 18:34+1:222m31133.445146mNRHardoi, Uttar Pradesh
18/==/KARKarnaX  18:48 18:47+1:3718:50 18:49+1:472m--1143.256143mNRHardoi, Uttar Pradesh
19/==/MSTMasit  18:58 18:57+1:4519:00 18:59+1:452m--1150.752141mNRSH 25, Uttar Pradesh
20/==/BGHBaghauliX  19:08 19:07+1:4119:10 19:09+1:562m--1157.752141mNRsharda nehar, Uttar Pradesh
21/==/BLMBalamau Junction (4)X  19:21 19:19+2:0119:23 19:21+2:012m--1166.452139mNRBalamau, Uttar Pradesh
22/==/DLQDalelnagarX  19:33 19:31+2:0019:35 19:33+2:002m--1175.148136mNRSH 25, Uttar Pradesh
23/==/UTAUmar TaliX  19:42 19:41+1:5919:44 19:43+2:072m--1181.440135mNRHardoi, Uttar Pradesh
24/==/SANSandila (3)  19:51+2:0819:53+2:122m--1186.760132mNRSandila, Uttar Pradesh
25/==/RBDRahimabadX  20:03 20:04+2:1020:05 20:06+2:132m--1197.851132mNRSH 25, Uttar Pradesh
26/==/DILDilawarnagarX  20:13 20:15+2:1220:15 20:17+2:212m--1205.343133mNRSH 25, Uttar Pradesh
27/==/MLDMalihabadX  20:20 20:25+2:1820:24 20:27+2:294 2m--1211.058130mNRMalihabad, Uttar Pradesh
28/==/KKJKakori (3)XO  20:33 20:37+2:0820:35 20:39+2:102m--1220.76129mNRSH 25, Uttar Pradesh
29/==/LKOLucknow Charbagh NR (9)X  23:00 23:15+5023:15 23:25+5415 10m51235.245 NR226004, Uttar Pradesh
30/==/BBKBarabanki Junction (4)X  23:55 00:03+1:0723:57 00:05+1:022m32263.860 NRPin-225001, Uttar Pradesh
31|--|DYDDaryabadX  00:28 00:43+1:2500:30 00:45+1:252m--2301.858116mNRFaizabad Rd, Uttar Pradesh
32|--|RDLRudauli (2)  00:48 01:09+1:2800:50 01:11+1:292m--2324.962112mNRRudauli, Uttar Pradesh
33|--|FDFaizabad Junction (5)  01:48+1:0701:53+1:115m12363.127104mNRFaizabad, Uttar Pradesh
34|--|AYAyodhya Junction (3)X  02:08+1:2402:10+1:252m12369.84098mNRAyodhya, Uttar Pradesh
35|--|GGJGoshainGanj (3)  02:58+1:1003:00+1:122m--2401.56798mNRGoshainganj, Uttar Pradesh
36|--|ABPAkbarpur Junction (2)  03:20+1:1603:22+1:182m--2423.77692mNRAkbarpur, Uttar Pradesh
37|--|MLPRMalipur (2)X  03:37+1:2203:39+1:222m--2442.84792mNRMalipur, Uttar Pradesh
38|--|SHGShahganj Junction (4)  04:11+1:2304:15+1:244m--2467.85390mNRShahganj, Uttar Pradesh
39|--|KSKheta Sarai (1)  04:27+1:2504:29+1:252m--2478.47288mNRKheta Sarai, Uttar Pradesh
40|--|JNUJaunpur Junction (5)X  04:48+1:2504:50+1:262m--2501.13283mNRJaunpur, Uttar Pradesh
41|--|ZBDZafarabad Junction (4)X  05:02+1:2505:04+1:262m--2507.53683mNRNational Highway 56, Uttar Pradesh
42/==/KSFKhalispur (2)X  05:43+1:0905:44+1:091m--2530.97083mNRPhulpur, Uttar Pradesh
43/==/BTPBabatpur (2)  05:52+1:0805:54+1:082m--2540.22084mNRSatomahua-Mangari Rd, Uttar Pradesh
44/==/BSBVaranasi Junction (9)  06:50+29-82558.8-82mNRVaranasi 221002, Uttar Pradesh
Scroll to Top
Scroll to Bottom